Time;durP1;ratioP1;P1;durP2;ratioP2;P2;SDS_P1;SDS_P2;PMS_P1;PMS_P2;Temp;Humidity;BMP_temperature;BMP_pressure;BME280_temperature;BME280_humidity;BME280_pressure;Samples;Min_cycle;Max_cycle;Signal;HPM_P1;HPM_P2
2023/11/25 00:00:54;;;;;;;;;;;5.30;70.00;;;0.40;100.00;94835.47;4981664;28;19917;-53
2023/11/25 00:03:20;;;;;;;;;;;5.30;70.00;;;0.38;100.00;94837.53;4976833;28;19956;-57
2023/11/25 00:05:46;;;;;;;;;;;5.30;70.00;;;0.39;100.00;94839.91;4980289;28;19909;-58
2023/11/25 00:08:11;;;;;;;;;;;5.30;70.00;;;0.40;100.00;94849.38;4979533;28;19910;-54
2023/11/25 00:10:38;;;;;;;;;;;5.30;69.90;;;0.39;100.00;94839.91;4980730;28;20349;-58
2023/11/25 00:13:05;;;;;;;;;;;5.40;70.00;;;0.34;100.00;94847.63;4978455;28;19916;-58
2023/11/25 00:15:31;;;;;;;;;;;5.40;69.90;;;0.33;100.00;94853.09;4974328;28;19928;-58
2023/11/25 00:17:58;;;;;;;;;;;5.30;69.70;;;0.31;100.00;94852.50;4984100;28;19913;-58
2023/11/25 00:20:25;;;;;;;;;;;5.30;69.70;;;0.28;100.00;94858.16;4979064;28;20087;-57
2023/11/25 00:22:52;;;;;;;;;;;5.30;69.60;;;0.27;100.00;94865.25;4981736;28;19997;-58
2023/11/25 00:25:19;;;;;;;;;;;5.30;69.60;;;0.29;100.00;94859.78;4975444;28;19932;-50
2023/11/25 00:27:49;;;;;;;;;;;5.30;69.60;;;0.25;100.00;94848.13;4984599;28;20131;-56
2023/11/25 00:30:15;;;;;;;;;;;5.20;69.50;;;0.13;100.00;94848.88;4970827;28;20001;-57
2023/11/25 00:32:41;;;;;;;;;;;5.20;69.60;;;0.04;100.00;94860.63;4970019;28;19921;-56
2023/11/25 00:35:10;;;;;;;;;;;5.20;69.60;;;0.07;100.00;94859.41;4970954;28;19964;-58
2023/11/25 00:37:39;;;;;;;;;;;5.10;69.50;;;-0.01;100.00;94850.78;4970163;28;20376;-54
2023/11/25 00:40:10;;;;;;;;;;;5.10;69.60;;;-0.01;100.00;94858.66;4971003;28;20024;-58
2023/11/25 00:42:39;;;;;;;;;;;5.10;69.70;;;-0.10;100.00;94867.00;4969469;28;20265;-51
2023/11/25 00:45:07;;;;;;;;;;;5.00;69.70;;;-0.09;100.00;94858.16;4967806;28;19956;-56
2023/11/25 00:47:34;;;;;;;;;;;5.00;69.80;;;-0.11;100.00;94847.09;4971680;28;19963;-58
2023/11/25 00:50:01;;;;;;;;;;;5.00;69.90;;;-0.11;100.00;94849.69;4970898;28;19910;-57
2023/11/25 00:52:27;;;;;;;;;;;5.00;69.80;;;-0.07;100.00;94850.88;4971938;28;20605;-56
2023/11/25 00:54:53;;;;;;;;;;;5.00;70.00;;;-0.07;100.00;94851.66;4968545;28;19921;-58
2023/11/25 00:57:19;;;;;;;;;;;4.90;69.90;;;-0.06;100.00;94855.09;4986373;28;20376;-54
2023/11/25 00:59:45;;;;;;;;;;;4.90;70.00;;;-0.06;100.00;94855.09;4987211;28;19909;-56
2023/11/25 01:02:10;;;;;;;;;;;4.90;70.10;;;-0.10;100.00;94859.94;4971999;28;19913;-57
2023/11/25 01:04:40;;;;;;;;;;;4.90;70.10;;;-0.12;100.00;94858.59;4969240;28;19910;-54
2023/11/25 01:07:07;;;;;;;;;;;4.90;70.20;;;-0.08;100.00;94875.44;4971104;28;19955;-54
2023/11/25 01:09:34;;;;;;;;;;;4.90;70.10;;;-0.06;100.00;94876.84;4963568;28;19910;-54
2023/11/25 01:12:00;;;;;;;;;;;4.90;70.10;;;-0.06;100.00;94876.06;4971489;28;20008;-53
2023/11/25 01:14:27;;;;;;;;;;;4.90;70.10;;;-0.07;100.00;94877.84;4969395;28;20028;-56
2023/11/25 01:16:53;;;;;;;;;;;4.90;70.10;;;-0.04;100.00;94892.31;4970752;28;19910;-52
2023/11/25 01:19:19;;;;;;;;;;;4.90;70.20;;;-0.04;100.00;94889.72;4970167;28;19910;-53
2023/11/25 01:21:45;;;;;;;;;;;4.90;70.20;;;-0.09;100.00;94895.59;4971919;28;20332;-53
2023/11/25 01:24:13;;;;;;;;;;;4.90;70.20;;;-0.07;100.00;94903.22;4974732;28;19913;-54
2023/11/25 01:26:39;;;;;;;;;;;5.00;70.30;;;-0.07;100.00;94898.00;4993433;28;19920;-56
2023/11/25 01:29:06;;;;;;;;;;;5.00;70.40;;;-0.06;100.00;94908.25;4994999;28;19909;-52
2023/11/25 01:31:33;;;;;;;;;;;5.00;70.30;;;-0.04;100.00;94903.59;4994390;28;20181;-57
2023/11/25 01:33:58;;;;;;;;;;;5.00;70.40;;;-0.03;100.00;94910.47;4994736;28;19921;-58
2023/11/25 01:36:26;;;;;;;;;;;5.00;70.40;;;-0.02;100.00;94912.03;4977910;28;19909;-57
2023/11/25 01:38:52;;;;;;;;;;;5.00;70.40;;;-0.01;100.00;94918.09;4993910;28;19960;-58
2023/11/25 01:41:18;;;;;;;;;;;5.00;70.40;;;0.02;100.00;94911.63;4991481;28;19913;-58
2023/11/25 01:43:44;;;;;;;;;;;5.00;70.50;;;0.06;100.00;94899.69;4995843;28;19909;-58
2023/11/25 01:46:11;;;;;;;;;;;5.00;70.50;;;0.09;100.00;94901.88;4997605;28;19916;-58
2023/11/25 01:48:38;;;;;;;;;;;5.00;70.50;;;0.06;100.00;94889.22;4979452;28;19952;-57
2023/11/25 01:51:06;;;;;;;;;;;5.00;70.50;;;0.03;100.00;94882.59;4997258;28;20352;-57
2023/11/25 01:53:33;;;;;;;;;;;5.00;70.50;;;0.05;100.00;94891.03;4996793;28;20000;-55
2023/11/25 01:56:01;;;;;;;;;;;5.00;70.50;;;-0.03;100.00;94892.13;4978802;28;19945;-62
2023/11/25 01:58:28;;;;;;;;;;;5.00;70.60;;;0.01;100.00;94894.31;4996970;28;19917;-58
2023/11/25 02:00:55;;;;;;;;;;;5.00;70.50;;;-0.01;100.00;94897.94;4996305;28;19964;-58
2023/11/25 02:03:22;;;;;;;;;;;5.00;70.60;;;-0.01;100.00;94900.56;4994589;28;20181;-57
2023/11/25 02:05:48;;;;;;;;;;;5.00;70.50;;;0.02;100.00;94901.94;4996898;28;19955;-56
2023/11/25 02:08:14;;;;;;;;;;;5.00;70.50;;;0.05;100.00;94903.34;4992920;28;19977;-53
2023/11/25 02:10:40;;;;;;;;;;;5.00;70.50;;;0.08;100.00;94900.28;4996221;28;19910;-58
2023/11/25 02:13:09;;;;;;;;;;;5.00;70.50;;;0.04;100.00;94893.88;5002415;28;20430;-56
2023/11/25 02:15:36;;;;;;;;;;;5.00;70.50;;;0.06;100.00;94887.38;4995472;28;20017;-58
2023/11/25 02:18:02;;;;;;;;;;;5.10;70.60;;;0.06;100.00;94891.84;4978187;28;19909;-58
2023/11/25 02:20:40;;;;;;;;;;;5.00;70.50;;;0.07;100.00;94890.84;4977434;28;19915;-56
2023/11/25 02:23:18;;;;;;;;;;;5.10;70.60;;;0.04;100.00;94894.69;4996001;28;19980;-57
2023/11/25 02:25:48;;;;;;;;;;;5.10;70.70;;;0.05;100.00;94896.28;4993050;28;20546;-53
2023/11/25 02:28:15;;;;;;;;;;;5.10;70.70;;;0.02;100.00;94896.69;4993577;28;19920;-52
2023/11/25 02:30:42;;;;;;;;;;;5.10;70.70;;;0.08;100.00;94893.22;4985541;28;19949;-54
2023/11/25 02:33:09;;;;;;;;;;;5.10;70.60;;;0.00;100.00;94893.53;4992172;28;19944;-51
2023/11/25 02:35:35;;;;;;;;;;;5.00;70.60;;;0.05;100.00;94896.28;4993140;28;19920;-52
2023/11/25 02:38:01;;;;;;;;;;;5.10;70.60;;;0.02;100.00;94906.38;4991455;28;19909;-54
2023/11/25 02:40:27;;;;;;;;;;;5.10;70.70;;;0.07;100.00;94906.56;4993685;28;19920;-52
2023/11/25 02:42:55;;;;;;;;;;;5.10;70.70;;;0.06;100.00;94897.88;4993206;28;20340;-49
2023/11/25 02:45:23;;;;;;;;;;;5.10;70.70;;;0.03;100.00;94902.75;4992175;28;19917;-50
2023/11/25 02:47:51;;;;;;;;;;;5.10;70.80;;;0.05;100.00;94905.94;4992797;28;19917;-49
2023/11/25 02:50:18;;;;;;;;;;;5.10;70.80;;;0.11;100.00;94908.50;4992400;28;20423;-54
2023/11/25 02:52:45;;;;;;;;;;;5.10;70.80;;;0.13;100.00;94916.16;4996709;28;19947;-53
2023/11/25 02:55:11;;;;;;;;;;;5.10;70.80;;;0.15;100.00;94914.13;4995678;28;19913;-54
2023/11/25 02:57:43;;;;;;;;;;;5.10;70.80;;;0.20;100.00;94919.53;4992413;28;20024;-52
2023/11/25 03:00:33;;;;;;;;;;;5.10;70.80;;;0.19;100.00;94928.41;4986915;28;19910;-52
2023/11/25 03:03:07;;;;;;;;;;;5.10;70.70;;;0.20;100.00;94925.56;4974600;28;19910;-50
2023/11/25 03:05:34;;;;;;;;;;;5.20;70.90;;;0.16;100.00;94928.84;4992798;28;19910;-53
2023/11/25 03:08:00;;;;;;;;;;;5.20;70.70;;;0.15;100.00;94935.06;4991490;28;19909;-52
2023/11/25 03:10:27;;;;;;;;;;;5.20;70.70;;;0.20;100.00;94941.28;4992676;28;19910;-50
2023/11/25 03:12:54;;;;;;;;;;;5.20;70.70;;;0.18;100.00;94938.06;4992489;28;20610;-52
2023/11/25 03:15:20;;;;;;;;;;;5.20;70.70;;;0.15;100.00;94938.47;4991731;28;19975;-52
2023/11/25 03:17:46;;;;;;;;;;;5.20;70.70;;;0.17;100.00;94946.94;4992478;28;20340;-49
2023/11/25 03:20:12;;;;;;;;;;;5.20;70.70;;;0.15;100.00;94937.69;4991837;28;19928;-49
2023/11/25 03:22:38;;;;;;;;;;;5.20;70.70;;;0.11;100.00;94942.56;4991745;28;20299;-54
2023/11/25 03:25:05;;;;;;;;;;;5.20;70.80;;;0.14;100.00;94946.56;4991583;28;19941;-51
2023/11/25 03:27:31;;;;;;;;;;;5.20;70.70;;;0.14;100.00;94944.75;4991230;28;19944;-52
2023/11/25 03:29:58;;;;;;;;;;;5.20;70.80;;;0.22;100.00;94946.31;4992465;28;20380;-51
2023/11/25 03:32:27;;;;;;;;;;;5.20;70.80;;;0.24;100.00;94941.63;4991431;28;19909;-51
2023/11/25 03:34:52;;;;;;;;;;;5.20;70.80;;;0.26;100.00;94944.84;4992516;28;20363;-52
2023/11/25 03:37:19;;;;;;;;;;;5.20;70.80;;;0.19;100.00;94951.97;4991232;28;19909;-53
2023/11/25 03:39:45;;;;;;;;;;;5.20;70.80;;;0.11;100.00;94952.25;4991272;28;20806;-54
2023/11/25 03:42:10;;;;;;;;;;;5.20;70.80;;;0.16;100.00;94953.19;4991302;28;19916;-52
2023/11/25 03:44:36;;;;;;;;;;;5.20;70.70;;;0.18;100.00;94964.25;4991129;28;19920;-55
2023/11/25 03:47:05;;;;;;;;;;;5.20;70.70;;;0.18;100.00;94963.44;4992131;28;19936;-50
2023/11/25 03:49:31;;;;;;;;;;;5.20;70.80;;;0.21;100.00;94952.53;4989989;28;19916;-50
2023/11/25 03:51:57;;;;;;;;;;;5.20;70.70;;;0.20;100.00;94958.81;4991719;28;19917;-54
2023/11/25 03:54:23;;;;;;;;;;;5.20;70.70;;;0.25;100.00;94966.00;4992072;28;20260;-53
2023/11/25 03:56:49;;;;;;;;;;;5.20;70.70;;;0.28;100.00;94968.19;4990620;28;19933;-49
2023/11/25 03:59:15;;;;;;;;;;;5.20;70.70;;;0.30;100.00;94968.81;4992251;28;19917;-53
2023/11/25 04:01:43;;;;;;;;;;;5.30;70.80;;;0.30;100.00;94969.59;4990803;28;19914;-49
2023/11/25 04:04:11;;;;;;;;;;;5.20;70.70;;;0.33;100.00;94977.03;4991850;28;20360;-52
2023/11/25 04:06:37;;;;;;;;;;;5.30;70.70;;;0.30;100.00;94971.41;4991647;28;19983;-51
2023/11/25 04:09:04;;;;;;;;;;;5.30;70.60;;;0.23;100.00;94974.91;4990664;28;19909;-49
2023/11/25 04:11:30;;;;;;;;;;;5.30;70.50;;;0.17;100.00;94978.38;4991663;28;20375;-52
2023/11/25 04:13:57;;;;;;;;;;;5.30;70.50;;;0.10;100.00;94974.22;4995368;28;19913;-51
2023/11/25 04:16:24;;;;;;;;;;;5.20;70.40;;;0.13;100.00;94976.41;4991677;28;19980;-54
2023/11/25 04:18:50;;;;;;;;;;;5.20;70.30;;;0.02;100.00;94977.09;4991639;28;19916;-54
2023/11/25 04:21:22;;;;;;;;;;;5.10;70.20;;;-0.03;100.00;94980.34;4973472;28;19909;-55
2023/11/25 04:23:55;;;;;;;;;;;5.10;70.20;;;-0.07;100.00;94985.19;4991263;28;20000;-55
2023/11/25 04:26:22;;;;;;;;;;;5.00;70.20;;;-0.09;100.00;94989.84;4973400;28;20006;-53
2023/11/25 04:28:50;;;;;;;;;;;5.00;70.20;;;-0.12;100.00;94995.53;4991251;28;19909;-53
2023/11/25 04:31:16;;;;;;;;;;;4.90;70.30;;;-0.13;100.00;94995.72;4991373;28;19916;-53
2023/11/25 04:33:42;;;;;;;;;;;4.90;70.30;;;-0.13;100.00;94993.91;4989185;28;19909;-53
2023/11/25 04:36:11;;;;;;;;;;;4.90;70.30;;;-0.11;100.00;94996.31;4989832;28;20363;-50
2023/11/25 04:38:37;;;;;;;;;;;4.90;70.40;;;-0.11;100.00;94997.13;4990021;28;19917;-56
2023/11/25 04:41:03;;;;;;;;;;;4.90;70.50;;;-0.11;100.00;94997.13;4990189;28;19909;-51
2023/11/25 04:43:30;;;;;;;;;;;4.90;70.60;;;-0.12;100.00;94997.34;4988676;28;19937;-53
2023/11/25 04:45:56;;;;;;;;;;;4.90;70.60;;;-0.11;100.00;95002.34;4991404;28;19913;-50
2023/11/25 04:48:22;;;;;;;;;;;4.90;70.60;;;-0.11;100.00;94997.13;4991117;28;19944;-51
2023/11/25 04:50:48;;;;;;;;;;;5.00;70.60;;;-0.04;100.00;95004.91;4972805;28;19947;-51
2023/11/25 04:53:14;;;;;;;;;;;5.00;70.70;;;-0.02;100.00;95008.94;4991383;28;20419;-52
2023/11/25 04:55:40;;;;;;;;;;;5.00;70.60;;;-0.05;100.00;95011.19;4990021;28;20320;-51
2023/11/25 04:58:05;;;;;;;;;;;5.00;70.60;;;-0.07;100.00;95018.44;4991116;28;19916;-49
2023/11/25 05:00:31;;;;;;;;;;;5.00;70.60;;;-0.05;100.00;95014.59;4994657;28;19956;-49
2023/11/25 05:02:57;;;;;;;;;;;5.00;70.60;;;-0.07;100.00;95018.44;4992741;28;19917;-54
2023/11/25 05:05:23;;;;;;;;;;;5.00;70.60;;;-0.06;100.00;95020.06;4994962;28;20303;-52
2023/11/25 05:07:49;;;;;;;;;;;5.00;70.60;;;-0.05;100.00;95016.41;4994178;28;20344;-53
2023/11/25 05:10:15;;;;;;;;;;;5.00;70.60;;;-0.05;100.00;95014.59;4994140;28;19932;-52
2023/11/25 05:12:42;;;;;;;;;;;5.00;70.60;;;-0.01;100.00;95022.81;4994824;28;20903;-51
2023/11/25 05:15:09;;;;;;;;;;;5.00;70.60;;;0.02;100.00;95013.75;4994059;28;20273;-49
2023/11/25 05:17:35;;;;;;;;;;;5.00;70.60;;;0.01;100.00;95012.16;4998303;28;20378;-56
2023/11/25 05:20:01;;;;;;;;;;;5.00;70.50;;;-0.03;100.00;95012.56;4992542;28;20016;-52
2023/11/25 05:22:28;;;;;;;;;;;5.10;70.50;;;-0.03;100.00;95011.78;4998016;28;19952;-55
2023/11/25 05:24:54;;;;;;;;;;;5.00;70.40;;;-0.05;100.00;95019.03;4994553;28;20015;-52
2023/11/25 05:27:21;;;;;;;;;;;5.10;70.50;;;-0.07;100.00;95021.84;4992653;28;19910;-50
2023/11/25 05:29:47;;;;;;;;;;;5.00;70.40;;;-0.06;100.00;95017.44;4994741;28;19913;-50
2023/11/25 05:32:13;;;;;;;;;;;5.00;70.30;;;-0.07;100.00;95023.66;4993217;28;20239;-51
2023/11/25 05:34:40;;;;;;;;;;;5.00;70.30;;;-0.09;100.00;95023.91;4994380;28;19913;-52
2023/11/25 05:37:07;;;;;;;;;;;5.00;70.20;;;-0.13;100.00;95027.13;4994331;28;19955;-53
2023/11/25 05:39:35;;;;;;;;;;;5.00;70.30;;;-0.11;100.00;95032.97;4993812;28;19909;-54
2023/11/25 05:42:02;;;;;;;;;;;5.00;70.30;;;-0.15;100.00;95027.34;4993245;28;19909;-54
2023/11/25 05:44:29;;;;;;;;;;;5.00;70.20;;;-0.18;100.00;95033.00;4993534;28;19948;-51
2023/11/25 05:46:56;;;;;;;;;;;4.90;70.20;;;-0.20;100.00;95034.22;4993915;28;19917;-51
2023/11/25 05:49:23;;;;;;;;;;;4.90;70.10;;;-0.26;100.00;95030.63;4992381;28;19910;-53
2023/11/25 05:51:50;;;;;;;;;;;4.90;70.10;;;-0.30;100.00;95034.69;4994285;28;19936;-53
2023/11/25 05:54:18;;;;;;;;;;;4.90;70.10;;;-0.31;100.00;95038.34;4994264;28;19925;-51
2023/11/25 05:56:45;;;;;;;;;;;4.80;70.00;;;-0.35;100.00;95032.69;4993001;28;19951;-50
2023/11/25 05:59:11;;;;;;;;;;;4.80;70.00;;;-0.41;100.00;95030.91;4993001;28;19915;-51
2023/11/25 06:01:38;;;;;;;;;;;4.70;69.90;;;-0.46;100.00;95035.97;4992690;28;19936;-54
2023/11/25 06:04:04;;;;;;;;;;;4.70;70.70;;;-0.47;100.00;95037.81;4992743;28;20450;-49
2023/11/25 06:06:30;;;;;;;;;;;4.60;69.90;;;-0.52;100.00;95042.84;4994228;28;20264;-50
2023/11/25 06:08:56;;;;;;;;;;;4.60;70.00;;;-0.54;100.00;95049.28;4991741;28;20386;-50
2023/11/25 06:11:28;;;;;;;;;;;4.50;70.00;;;-0.59;100.00;95047.31;4993218;28;19909;-52
2023/11/25 06:13:56;;;;;;;;;;;4.50;70.00;;;-0.64;100.00;95054.19;4975626;28;20031;-55
2023/11/25 06:16:24;;;;;;;;;;;4.40;69.90;;;-0.66;100.00;95046.53;4994012;28;19917;-50
2023/11/25 06:18:50;;;;;;;;;;;4.40;70.00;;;-0.68;100.00;95045.16;4976604;28;19909;-49
2023/11/25 06:21:16;;;;;;;;;;;4.40;70.10;;;-0.73;100.00;95051.78;4991340;28;19983;-50
2023/11/25 06:23:45;;;;;;;;;;;4.30;70.00;;;-0.79;100.00;95044.75;4993577;28;20280;-51
2023/11/25 06:26:12;;;;;;;;;;;4.30;70.00;;;-0.83;100.00;95051.41;4992611;28;19917;-52
2023/11/25 06:28:47;;;;;;;;;;;4.20;70.00;;;-0.87;100.00;95054.66;4991843;28;19920;-50
2023/11/25 06:31:15;;;;;;;;;;;4.20;70.00;;;-0.91;100.00;95058.69;4992577;28;19913;-48
2023/11/25 06:33:42;;;;;;;;;;;4.20;70.10;;;-0.94;100.00;95057.28;4973081;28;20284;-53
2023/11/25 06:36:10;;;;;;;;;;;4.10;70.10;;;-0.97;100.00;95047.25;4982508;28;20281;-51
2023/11/25 06:38:36;;;;;;;;;;;4.10;70.10;;;-0.99;100.00;95057.91;4985955;28;19933;-50
2023/11/25 06:41:02;;;;;;;;;;;4.10;70.10;;;-1.01;100.00;95056.50;4984390;28;20323;-50
2023/11/25 06:43:28;;;;;;;;;;;4.00;70.10;;;-1.04;100.00;95059.50;4986473;28;19936;-49
2023/11/25 06:45:54;;;;;;;;;;;4.00;70.20;;;-1.04;100.00;95056.91;4985641;28;20288;-49
2023/11/25 06:48:23;;;;;;;;;;;4.00;70.20;;;-1.07;100.00;95062.53;4990414;28;19929;-51
2023/11/25 06:50:52;;;;;;;;;;;4.00;70.30;;;-1.09;100.00;95065.38;4988296;28;20244;-51
2023/11/25 06:53:18;;;;;;;;;;;3.90;70.20;;;-1.09;100.00;95072.41;4986499;28;19952;-49
2023/11/25 06:55:45;;;;;;;;;;;3.90;70.40;;;-1.09;100.00;95075.03;4989001;28;19953;-49
2023/11/25 06:58:12;;;;;;;;;;;3.90;70.40;;;-1.10;100.00;95076.03;4989180;28;19924;-49
2023/11/25 07:00:39;;;;;;;;;;;4.00;70.40;;;-1.11;100.00;95075.22;4973563;28;20198;-54
2023/11/25 07:03:05;;;;;;;;;;;4.00;70.50;;;-1.10;100.00;95079.44;4990168;28;19913;-51
2023/11/25 07:05:31;;;;;;;;;;;4.00;70.60;;;-1.08;100.00;95084.47;4991639;28;20319;-48
2023/11/25 07:07:58;;;;;;;;;;;3.90;70.50;;;-1.08;100.00;95079.25;4991608;28;19924;-55
2023/11/25 07:10:23;;;;;;;;;;;4.00;70.50;;;-1.09;100.00;95091.50;4992473;28;19921;-49
2023/11/25 07:12:49;;;;;;;;;;;4.00;70.50;;;-1.09;100.00;95090.72;4992587;28;20392;-49
2023/11/25 07:15:15;;;;;;;;;;;4.00;70.50;;;-1.09;100.00;95088.09;4990448;28;20013;-47
2023/11/25 07:17:42;;;;;;;;;;;4.00;70.40;;;-1.07;100.00;95102.56;4975728;28;22673;-50
2023/11/25 07:20:11;;;;;;;;;;;4.00;70.40;;;-1.07;100.00;95105.16;4974472;28;19910;-48
2023/11/25 07:22:39;;;;;;;;;;;4.00;70.40;;;-1.04;100.00;95110.00;4991227;28;20368;-55
2023/11/25 07:25:11;;;;;;;;;;;4.00;70.40;;;-0.99;100.00;95118.03;4992249;28;19921;-48
2023/11/25 07:27:47;;;;;;;;;;;4.10;70.50;;;-0.97;100.00;95118.66;4991265;28;19920;-47
2023/11/25 07:30:15;;;;;;;;;;;4.10;70.50;;;-0.92;100.00;95125.88;4985330;28;19916;-49
2023/11/25 07:32:43;;;;;;;;;;;4.20;70.50;;;-0.88;100.00;95128.88;4987839;28;19913;-47
2023/11/25 07:35:10;;;;;;;;;;;4.20;70.50;;;-0.84;100.00;95130.09;4991163;28;19913;-52
2023/11/25 07:37:38;;;;;;;;;;;4.30;70.60;;;-0.79;100.00;95133.69;4988223;28;20120;-48
2023/11/25 07:40:09;;;;;;;;;;;4.40;70.60;;;-0.72;100.00;95137.09;4992359;28;19913;-52
2023/11/25 07:42:37;;;;;;;;;;;4.50;70.60;;;-0.65;100.00;95144.13;4994411;28;19917;-47
2023/11/25 07:45:09;;;;;;;;;;;4.60;70.50;;;-0.63;100.00;95136.88;4982360;28;19917;-49
2023/11/25 07:47:35;;;;;;;;;;;4.60;70.30;;;-0.63;100.00;95134.25;4986383;28;19913;-50
2023/11/25 07:50:02;;;;;;;;;;;4.70;70.30;;;-0.62;100.00;95134.06;4975495;28;19952;-50
2023/11/25 07:52:28;;;;;;;;;;;4.70;70.10;;;-0.63;100.00;95129.81;4978688;28;19909;-48
2023/11/25 07:54:53;;;;;;;;;;;4.70;70.00;;;-0.64;100.00;95143.91;4990372;28;19917;-48
2023/11/25 07:57:19;;;;;;;;;;;4.70;70.00;;;-0.66;100.00;95143.31;4971787;28;19916;-50
2023/11/25 07:59:45;;;;;;;;;;;4.60;69.90;;;-0.67;100.00;95130.44;4973376;28;19916;-55
2023/11/25 08:02:11;;;;;;;;;;;4.60;69.80;;;-0.69;100.00;95135.88;4990278;28;19924;-48
2023/11/25 08:04:37;;;;;;;;;;;4.60;69.80;;;-0.68;100.00;95139.31;4989410;28;19913;-48
2023/11/25 08:07:03;;;;;;;;;;;4.60;69.80;;;-0.69;100.00;95135.88;4990165;28;20315;-50
2023/11/25 08:09:29;;;;;;;;;;;4.60;69.80;;;-0.66;100.00;95140.69;4988535;28;19944;-50
2023/11/25 08:11:55;;;;;;;;;;;4.60;69.80;;;-0.63;100.00;95152.56;4990710;28;19909;-50
2023/11/25 08:14:21;;;;;;;;;;;4.70;69.90;;;-0.64;100.00;95150.97;4990394;28;20004;-47
2023/11/25 08:16:49;;;;;;;;;;;4.70;69.90;;;-0.59;100.00;95153.78;4990324;28;20040;-48
2023/11/25 08:19:17;;;;;;;;;;;4.80;70.70;;;-0.54;100.00;95154.75;4991510;28;19915;-51
2023/11/25 08:21:43;;;;;;;;;;;4.90;70.00;;;-0.47;100.00;95165.19;4990923;28;19918;-50
2023/11/25 08:24:09;;;;;;;;;;;4.90;70.00;;;-0.43;100.00;95166.41;4989943;28;19913;-51
2023/11/25 08:26:35;;;;;;;;;;;5.00;69.90;;;-0.38;100.00;95163.16;4990540;28;19932;-51
2023/11/25 08:29:02;;;;;;;;;;;5.00;69.80;;;-0.35;100.00;95176.63;4991258;28;19909;-53
2023/11/25 08:31:29;;;;;;;;;;;5.00;69.80;;;-0.31;100.00;95182.28;4990443;28;19956;-52
2023/11/25 08:33:55;;;;;;;;;;;5.10;69.90;;;-0.26;100.00;95178.03;4990755;28;19910;-51
2023/11/25 08:36:21;;;;;;;;;;;5.20;69.90;;;-0.20;100.00;95179.00;4991249;28;19909;-54
2023/11/25 08:38:51;;;;;;;;;;;5.30;69.90;;;-0.17;100.00;95177.81;4990053;28;19967;-53
2023/11/25 08:41:16;;;;;;;;;;;5.30;69.80;;;-0.09;100.00;95183.63;4991363;28;20313;-52
2023/11/25 08:43:43;;;;;;;;;;;5.40;69.80;;;0.01;100.00;95185.78;4990176;28;20103;-51
2023/11/25 08:46:19;;;;;;;;;;;5.50;69.80;;;0.10;100.00;95181.91;4991148;28;19964;-54
2023/11/25 08:48:46;;;;;;;;;;;5.70;69.80;;;0.20;100.00;95190.13;4990768;28;20424;-55
2023/11/25 08:51:14;;;;;;;;;;;5.80;69.70;;;0.23;100.00;95191.53;4972805;28;20000;-53
2023/11/25 08:53:44;;;;;;;;;;;5.90;69.60;;;0.21;100.00;95188.31;4989983;28;20454;-52
2023/11/25 08:56:10;;;;;;;;;;;5.90;69.50;;;0.22;100.00;95190.72;4972828;28;19953;-53
2023/11/25 08:58:36;;;;;;;;;;;5.90;69.40;;;0.23;100.00;95196.78;4991221;28;19960;-52
2023/11/25 09:01:04;;;;;;;;;;;5.90;69.40;;;0.41;100.00;95196.09;4991298;28;20397;-54
2023/11/25 09:03:30;;;;;;;;;;;6.20;69.50;;;0.61;100.00;95196.75;4990388;28;20340;-51
2023/11/25 09:05:56;;;;;;;;;;;6.50;69.60;;;0.88;100.00;95192.13;4973803;28;20129;-50
2023/11/25 09:08:22;;;;;;;;;;;6.80;69.60;;;1.17;100.00;95199.59;4990420;28;19916;-53
2023/11/25 09:10:49;;;;;;;;;;;7.20;69.60;;;1.39;100.00;95200.78;4989858;28;19913;-54
2023/11/25 09:13:15;;;;;;;;;;;7.50;69.50;;;1.55;100.00;95205.47;4989339;28;19976;-50
2023/11/25 09:15:41;;;;;;;;;;;7.70;69.30;;;1.70;100.00;95199.88;4989904;28;19913;-55
2023/11/25 09:18:08;;;;;;;;;;;8.00;69.10;;;1.71;100.00;95185.72;4990877;28;19913;-55
2023/11/25 09:20:36;;;;;;;;;;;8.20;68.70;;;1.70;100.00;95183.34;4989862;28;19910;-51
2023/11/25 09:23:02;;;;;;;;;;;8.30;68.10;;;1.73;100.00;95194.19;4990934;28;19963;-56
2023/11/25 09:25:31;;;;;;;;;;;8.30;67.80;;;1.78;100.00;95201.41;4989718;28;19918;-53
2023/11/25 09:27:56;;;;;;;;;;;8.30;67.60;;;1.86;100.00;95206.38;4990884;28;19921;-55
2023/11/25 09:30:23;;;;;;;;;;;8.30;67.40;;;1.85;100.00;95210.84;4990902;28;20338;-54
2023/11/25 09:32:49;;;;;;;;;;;8.30;67.30;;;1.91;100.00;95214.38;4989858;28;19921;-53
2023/11/25 09:35:15;;;;;;;;;;;8.20;67.10;;;1.81;100.00;95212.28;4989199;28;19917;-55
2023/11/25 09:37:43;;;;;;;;;;;8.20;67.10;;;1.83;100.00;95212.06;4988621;28;20533;-55
2023/11/25 09:40:14;;;;;;;;;;;8.20;67.00;;;1.86;100.00;95209.00;4989498;28;20352;-50
2023/11/25 09:42:42;;;;;;;;;;;8.20;67.10;;;1.97;100.00;95215.34;4990913;28;19986;-55
2023/11/25 09:45:13;;;;;;;;;;;8.10;67.00;;;1.82;100.00;95215.72;4988963;28;20311;-55
2023/11/25 09:47:43;;;;;;;;;;;8.10;67.00;;;1.83;100.00;95215.50;4994302;28;20395;-55
2023/11/25 09:50:10;;;;;;;;;;;8.00;66.90;;;1.75;100.00;95213.16;4992959;28;19913;-55
2023/11/25 09:52:59;;;;;;;;;;;8.00;66.80;;;1.79;100.00;95224.03;4994349;28;19959;-54
2023/11/25 09:55:27;;;;;;;;;;;7.90;66.80;;;1.74;100.00;95226.50;4993080;28;19917;-55
2023/11/25 09:58:06;;;;;;;;;;;7.80;66.80;;;1.74;100.00;95223.88;4994019;28;19909;-54
2023/11/25 10:00:33;;;;;;;;;;;7.80;66.90;;;1.66;100.00;95229.41;4973730;28;19918;-55
2023/11/25 10:03:02;;;;;;;;;;;7.70;66.90;;;1.66;100.00;95216.28;4992276;28;20002;-55
2023/11/25 10:05:28;;;;;;;;;;;7.60;66.90;;;1.56;100.00;95217.56;4993944;28;19910;-50
2023/11/25 10:07:54;;;;;;;;;;;7.60;67.00;;;1.56;100.00;95222.03;4991534;28;19910;-49
2023/11/25 10:10:24;;;;;;;;;;;7.50;67.00;;;1.65;100.00;95231.22;4993685;28;20286;-55
2023/11/25 10:12:50;;;;;;;;;;;7.50;67.10;;;1.63;100.00;95225.41;4993588;28;19909;-55
2023/11/25 10:15:16;;;;;;;;;;;7.40;67.30;;;1.59;100.00;95225.03;4992866;28;20007;-52
2023/11/25 10:17:44;;;;;;;;;;;7.40;67.30;;;1.64;100.00;95231.47;4993771;28;20353;-54
2023/11/25 10:20:18;;;;;;;;;;;7.40;67.30;;;1.62;100.00;95227.22;4992112;28;20004;-53
2023/11/25 10:22:58;;;;;;;;;;;7.40;67.30;;;1.64;100.00;95218.34;4993528;28;19916;-51
2023/11/25 10:25:27;;;;;;;;;;;7.40;67.30;;;1.65;100.00;95222.56;4992683;28;20296;-54
2023/11/25 10:27:54;;;;;;;;;;;7.50;67.30;;;1.78;100.00;95222.41;4974942;28;19944;-55
2023/11/25 10:30:22;;;;;;;;;;;7.50;67.30;;;1.79;100.00;95218.78;4992328;28;19909;-54
2023/11/25 10:32:52;;;;;;;;;;;7.60;67.40;;;1.65;100.00;95219.94;4993404;28;19909;-53
2023/11/25 10:35:18;;;;;;;;;;;7.60;67.20;;;1.72;100.00;95210.97;4987118;28;19940;-55
2023/11/25 10:37:45;;;;;;;;;;;7.60;67.00;;;1.82;100.00;95215.72;4996054;28;20030;-54
2023/11/25 10:40:16;;;;;;;;;;;7.70;67.00;;;1.86;100.00;95209.00;4991682;28;19913;-54
2023/11/25 10:42:43;;;;;;;;;;;7.80;66.90;;;1.87;97.66;95207.19;4977162;28;19913;-55
2023/11/25 10:45:17;;;;;;;;;;;7.90;66.70;;;1.82;96.56;95195.53;4994121;28;19916;-54
2023/11/25 10:47:43;;;;;;;;;;;7.90;66.50;;;1.83;96.46;95199.75;4997453;28;19909;-55
2023/11/25 10:50:10;;;;;;;;;;;8.00;66.10;;;1.89;97.49;95187.56;4991270;28;20283;-55
2023/11/25 10:52:39;;;;;;;;;;;8.00;65.90;;;1.96;96.97;95196.16;4997115;28;19945;-55
2023/11/25 10:55:09;;;;;;;;;;;8.10;65.90;;;2.09;96.25;95189.94;4981672;28;19922;-50
2023/11/25 10:57:36;;;;;;;;;;;8.10;66.30;;;2.09;94.37;95189.94;4992372;28;20277;-49
2023/11/25 11:00:12;;;;;;;;;;;8.20;65.80;;;2.27;95.23;95191.75;5000956;28;19916;-51
2023/11/25 11:02:54;;;;;;;;;;;8.30;65.70;;;2.47;95.65;95194.91;5004783;28;19955;-53
2023/11/25 11:05:49;;;;;;;;;;;8.60;65.80;;;2.43;92.61;95193.75;5002743;28;20375;-53
2023/11/25 11:08:40;;;;;;;;;;;8.80;65.50;;;2.74;94.32;95197.19;4996410;28;19955;-56
2023/11/25 11:11:23;;;;;;;;;;;9.10;65.30;;;2.93;91.33;95188.19;5000003;28;19917;-53
2023/11/25 11:14:07;;;;;;;;;;;9.30;65.30;;;3.03;93.40;95185.00;5003750;28;19931;-52
2023/11/25 11:17:04;;;;;;;;;;;9.50;65.00;;;3.27;93.20;95192.94;5002241;28;19917;-53
2023/11/25 11:19:53;;;;;;;;;;;9.70;65.00;;;3.15;87.01;95191.09;5000351;28;19914;-55
2023/11/25 11:22:21;;;;;;;;;;;9.90;64.40;;;3.19;85.63;95189.59;5001840;28;19916;-55
2023/11/25 11:25:12;;;;;;;;;;;10.10;63.90;;;3.32;86.36;95182.50;5001615;28;19921;-53